createdAt,value
2023-05-11T00:00:24.691Z,55.77
2023-05-11T00:02:51.654Z,54.57
2023-05-11T00:05:18.581Z,52.86
2023-05-11T00:07:45.558Z,52.57
2023-05-11T00:10:12.410Z,52.26
2023-05-11T00:12:39.301Z,51.94
2023-05-11T00:15:06.795Z,50.42
2023-05-11T00:17:33.761Z,56.27
2023-05-11T00:20:00.908Z,59.79
2023-05-11T00:22:27.760Z,55.30
2023-05-11T00:24:54.665Z,59.45
2023-05-11T00:27:21.483Z,63.97
2023-05-11T00:29:48.283Z,66.09
2023-05-11T00:32:15.089Z,69.64
2023-05-11T00:34:41.790Z,73.86
2023-05-11T00:37:08.824Z,68.46
2023-05-11T00:39:40.591Z,72.60
2023-05-11T00:42:07.620Z,65.40
2023-05-11T00:44:34.528Z,63.78
2023-05-11T00:47:01.463Z,61.84
2023-05-11T00:49:29.946Z,60.04
2023-05-11T00:51:57.924Z,62.91
2023-05-11T00:54:25.068Z,57.52
2023-05-11T00:56:51.961Z,53.21
2023-05-11T00:59:19.255Z,54.23
2023-05-11T01:01:46.329Z,58.71
2023-05-11T01:04:13.465Z,57.03
2023-05-11T01:07:06.510Z,57.79
2023-05-11T01:09:47.265Z,61.25
2023-05-11T01:12:16.766Z,61.41
2023-05-11T01:15:13.040Z,61.91
2023-05-11T01:17:50.464Z,63.12
2023-05-11T01:20:27.186Z,69.94
2023-05-11T01:23:21.163Z,63.66
2023-05-11T01:26:09.740Z,61.49
2023-05-11T01:28:54.773Z,66.60
2023-05-11T01:31:21.882Z,62.61
2023-05-11T01:33:55.807Z,60.91
2023-05-11T01:36:29.351Z,61.72
2023-05-11T01:39:00.608Z,61.07
2023-05-11T01:41:28.509Z,60.52
2023-05-11T01:44:00.192Z,61.49
2023-05-11T01:46:27.667Z,60.83
2023-05-11T01:48:56.824Z,63.10
2023-05-11T01:51:25.180Z,59.55
2023-05-11T01:53:53.809Z,59.20
2023-05-11T01:56:22.809Z,60.88
2023-05-11T01:58:50.689Z,59.41
2023-05-11T02:01:18.653Z,62.11
2023-05-11T02:03:46.681Z,61.00
2023-05-11T02:06:14.785Z,59.26
2023-05-11T02:08:41.944Z,60.51
2023-05-11T02:11:10.633Z,58.00
2023-05-11T02:13:39.507Z,58.83
2023-05-11T02:16:07.100Z,59.54
2023-05-11T02:18:35.201Z,59.75
2023-05-11T02:21:02.878Z,59.20
2023-05-11T02:23:31.633Z,56.26
2023-05-11T02:25:58.741Z,59.06
2023-05-11T02:28:25.928Z,58.64
2023-05-11T02:30:55.985Z,59.52
2023-05-11T02:33:28.983Z,56.73
2023-05-11T02:35:56.673Z,59.37
2023-05-11T02:38:28.969Z,60.63
2023-05-11T02:40:59.140Z,65.91
2023-05-11T02:43:31.613Z,71.91
2023-05-11T02:46:02.644Z,68.82
2023-05-11T02:48:32.683Z,67.10
2023-05-11T02:51:01.642Z,64.69
2023-05-11T02:53:29.395Z,66.75
2023-05-11T02:55:57.560Z,64.87
2023-05-11T02:58:24.648Z,64.26
2023-05-11T03:00:52.000Z,64.92
2023-05-11T03:03:19.202Z,63.82
2023-05-11T03:05:46.189Z,64.55
2023-05-11T03:08:13.013Z,64.38
2023-05-11T03:10:40.652Z,63.93
2023-05-11T03:13:08.081Z,63.60
2023-05-11T03:15:35.133Z,64.84
2023-05-11T03:18:02.426Z,65.59
2023-05-11T03:20:29.541Z,63.87
2023-05-11T03:22:56.950Z,63.73
2023-05-11T03:25:24.608Z,63.25
2023-05-11T03:27:51.752Z,63.20
2023-05-11T03:30:20.381Z,60.07
2023-05-11T03:32:47.470Z,60.70
2023-05-11T03:35:14.389Z,60.07
2023-05-11T03:37:41.540Z,61.01
2023-05-11T03:40:09.269Z,59.57
2023-05-11T03:42:36.695Z,59.38
2023-05-11T03:45:04.546Z,63.01
2023-05-11T03:47:32.115Z,61.38
2023-05-11T03:49:59.237Z,60.49
2023-05-11T03:52:26.529Z,58.29
2023-05-11T03:54:53.584Z,56.25
2023-05-11T03:57:20.451Z,55.87
2023-05-11T03:59:47.430Z,57.54
2023-05-11T04:02:14.312Z,57.66
2023-05-11T04:04:41.205Z,56.63
2023-05-11T04:07:08.101Z,56.43
2023-05-11T04:09:35.008Z,56.11
2023-05-11T04:12:01.890Z,57.44
2023-05-11T04:14:28.717Z,57.84
2023-05-11T04:16:55.582Z,57.63
2023-05-11T04:19:24.022Z,57.84
2023-05-11T04:21:50.874Z,59.84
2023-05-11T04:24:17.759Z,60.80
2023-05-11T04:26:44.833Z,59.16
2023-05-11T04:29:11.727Z,60.80
2023-05-11T04:31:38.605Z,58.75
2023-05-11T04:34:08.622Z,59.33
2023-05-11T04:36:35.470Z,59.49
2023-05-11T04:39:02.376Z,59.07
2023-05-11T04:41:29.244Z,59.06
2023-05-11T04:43:56.070Z,59.79
2023-05-11T04:46:23.741Z,59.97
2023-05-11T04:48:50.793Z,57.93
2023-05-11T04:51:17.638Z,55.58
2023-05-11T04:53:44.730Z,56.35
2023-05-11T04:56:12.918Z,54.98
2023-05-11T04:58:39.820Z,57.35
2023-05-11T05:01:06.777Z,57.86
2023-05-11T05:03:33.669Z,54.89
2023-05-11T05:06:00.648Z,56.00
2023-05-11T05:08:27.514Z,55.22
2023-05-11T05:10:54.386Z,53.28
2023-05-11T05:13:21.236Z,53.82
2023-05-11T05:15:48.048Z,53.04
2023-05-11T05:18:14.985Z,49.74
2023-05-11T05:20:41.842Z,50.67
2023-05-11T05:23:09.337Z,48.98
2023-05-11T05:25:36.190Z,49.83
2023-05-11T05:28:03.043Z,48.80
2023-05-11T05:30:29.939Z,47.97
2023-05-11T05:32:56.826Z,48.33
2023-05-11T05:35:23.705Z,48.29
2023-05-11T05:37:50.559Z,47.80
2023-05-11T05:40:17.601Z,48.43
2023-05-11T05:42:45.763Z,48.13
2023-05-11T05:45:13.981Z,51.10
2023-05-11T05:47:42.026Z,51.16
2023-05-11T05:50:09.275Z,50.72
2023-05-11T05:52:36.650Z,49.07
2023-05-11T05:55:03.678Z,50.19
2023-05-11T05:57:30.884Z,50.54
2023-05-11T05:59:57.795Z,51.19
2023-05-11T06:02:24.713Z,50.37
2023-05-11T06:04:51.678Z,50.88
2023-05-11T06:07:18.544Z,50.11
2023-05-11T06:09:45.447Z,49.39
2023-05-11T06:12:12.368Z,49.28
2023-05-11T06:14:39.403Z,49.48
2023-05-11T06:17:06.368Z,50.64
2023-05-11T06:19:33.397Z,51.26
2023-05-11T06:22:00.260Z,50.55
2023-05-11T06:24:27.194Z,49.66
2023-05-11T06:26:54.065Z,49.82
2023-05-11T06:29:22.440Z,48.19
2023-05-11T06:31:56.185Z,49.13
2023-05-11T06:34:23.113Z,51.29
2023-05-11T06:36:49.974Z,48.38
2023-05-11T06:39:16.849Z,47.80
2023-05-11T06:41:44.682Z,47.85
2023-05-11T06:44:13.122Z,48.67
2023-05-11T06:46:40.113Z,50.14
2023-05-11T06:49:08.776Z,50.62
2023-05-11T06:51:35.720Z,51.06
2023-05-11T06:54:02.753Z,49.86
2023-05-11T06:56:29.934Z,51.45
2023-05-11T06:59:01.439Z,52.27
2023-05-11T07:01:28.491Z,49.36
2023-05-11T07:03:55.977Z,48.62
2023-05-11T07:06:22.882Z,48.19
2023-05-11T07:08:52.801Z,48.27
2023-05-11T07:11:19.786Z,48.88
2023-05-11T07:13:47.795Z,48.60
2023-05-11T07:16:15.022Z,48.99
2023-05-11T07:18:42.005Z,48.91
2023-05-11T07:21:08.977Z,50.05
2023-05-11T07:23:35.824Z,49.58
2023-05-11T07:26:04.706Z,50.37
2023-05-11T07:28:44.009Z,49.59
2023-05-11T07:31:10.965Z,49.28
2023-05-11T07:33:39.582Z,49.46
2023-05-11T07:36:07.529Z,48.66
2023-05-11T07:38:36.551Z,49.25
2023-05-11T07:41:05.965Z,48.67
2023-05-11T07:43:33.611Z,48.94
2023-05-11T07:46:00.609Z,49.15
2023-05-11T07:48:28.976Z,49.10
2023-05-11T07:50:55.977Z,47.65
2023-05-11T07:53:22.823Z,47.58
2023-05-11T07:55:49.745Z,49.01
2023-05-11T07:58:16.746Z,47.42
2023-05-11T08:00:43.737Z,47.56
2023-05-11T08:03:10.747Z,48.31
2023-05-11T08:05:38.133Z,46.67
2023-05-11T08:08:05.459Z,46.67
2023-05-11T08:10:32.340Z,47.03
2023-05-11T08:12:59.358Z,46.25
2023-05-11T08:15:26.237Z,46.60
2023-05-11T08:17:54.214Z,46.54
2023-05-11T08:20:21.089Z,48.55
2023-05-11T08:22:48.128Z,47.48
2023-05-11T08:25:15.003Z,47.71
2023-05-11T08:27:41.928Z,47.47
2023-05-11T08:30:11.764Z,46.29
2023-05-11T08:32:54.489Z,47.42
2023-05-11T08:35:25.177Z,47.15
2023-05-11T08:37:52.073Z,46.09
2023-05-11T08:40:21.956Z,45.98
2023-05-11T08:42:49.947Z,47.36
2023-05-11T08:45:18.050Z,44.79
2023-05-11T08:47:46.415Z,44.84
2023-05-11T08:50:13.441Z,44.09
2023-05-11T08:52:40.936Z,43.20
2023-05-11T08:55:09.431Z,45.02
2023-05-11T08:57:36.667Z,43.28
2023-05-11T09:00:04.447Z,43.44
2023-05-11T09:02:32.328Z,44.90
2023-05-11T09:04:59.967Z,45.13
2023-05-11T09:07:27.398Z,43.71
2023-05-11T09:09:55.110Z,44.13
2023-05-11T09:12:26.237Z,43.06
2023-05-11T09:14:53.177Z,43.36
2023-05-11T09:17:20.193Z,43.04
2023-05-11T09:20:07.807Z,42.38
2023-05-11T09:22:42.350Z,42.76
2023-05-11T09:25:12.001Z,42.91
2023-05-11T09:27:43.311Z,43.09
2023-05-11T09:30:12.519Z,41.87
2023-05-11T09:32:54.635Z,41.47
2023-05-11T09:35:29.515Z,39.71
2023-05-11T09:38:07.118Z,39.84
2023-05-11T09:40:36.811Z,39.38
2023-05-11T09:43:16.871Z,39.47
2023-05-11T09:45:45.642Z,39.85
2023-05-11T09:48:22.227Z,40.38
2023-05-11T09:50:50.352Z,40.51
2023-05-11T09:53:17.833Z,40.41
2023-05-11T09:55:55.708Z,40.18
2023-05-11T09:58:22.587Z,39.90
2023-05-11T10:00:53.832Z,39.22
2023-05-11T10:03:21.019Z,38.27
2023-05-11T10:05:59.060Z,37.75
2023-05-11T10:08:35.962Z,38.78
2023-05-11T10:11:03.188Z,39.99
2023-05-11T10:13:33.509Z,38.81
2023-05-11T10:16:04.139Z,38.89
2023-05-11T10:18:32.654Z,39.21
2023-05-11T10:21:00.217Z,37.69
2023-05-11T10:23:27.392Z,38.74
2023-05-11T10:25:54.625Z,38.72
2023-05-11T10:28:22.534Z,38.50
2023-05-11T10:30:49.880Z,38.68
2023-05-11T10:33:17.305Z,37.45
2023-05-11T10:35:46.069Z,38.05
2023-05-11T10:38:13.716Z,38.06
2023-05-11T10:40:46.371Z,37.76
2023-05-11T10:43:52.594Z,37.48
2023-05-11T10:46:32.032Z,37.53
2023-05-11T10:49:12.897Z,37.81
2023-05-11T10:52:04.436Z,37.94
2023-05-11T10:54:50.622Z,38.19
2023-05-11T10:57:51.290Z,38.50
2023-05-11T11:00:47.960Z,38.44
2023-05-11T11:03:15.863Z,37.40
2023-05-11T11:05:44.178Z,36.33
2023-05-11T11:08:13.125Z,36.12
2023-05-11T11:10:46.232Z,37.18
2023-05-11T11:13:14.272Z,37.67
2023-05-11T11:15:56.288Z,37.15
2023-05-11T11:18:35.983Z,37.75
2023-05-11T11:21:04.437Z,38.37
2023-05-11T11:23:40.845Z,36.94
2023-05-11T11:26:10.103Z,36.82
2023-05-11T11:28:55.070Z,38.18
2023-05-11T11:31:27.811Z,37.73
2023-05-11T11:33:59.165Z,36.39
2023-05-11T11:37:03.736Z,37.29
2023-05-11T11:39:42.647Z,37.07
2023-05-11T11:42:14.311Z,36.26
2023-05-11T11:44:42.178Z,35.75
2023-05-11T11:47:18.981Z,36.43
2023-05-11T11:49:48.529Z,38.81
2023-05-11T11:52:35.931Z,39.55
2023-05-11T11:55:05.324Z,38.47
2023-05-11T11:57:35.273Z,39.03
2023-05-11T12:00:07.280Z,39.42
2023-05-11T12:02:35.179Z,38.38
2023-05-11T12:05:13.205Z,39.19
2023-05-11T12:07:45.372Z,39.19
2023-05-11T12:10:17.593Z,38.85
2023-05-11T12:12:51.302Z,40.07
2023-05-11T12:15:28.245Z,38.16
2023-05-11T12:17:55.947Z,39.58
2023-05-11T12:20:23.148Z,40.86
2023-05-11T12:22:50.478Z,40.21
2023-05-11T12:25:18.875Z,39.96
2023-05-11T12:27:52.001Z,39.40
2023-05-11T12:30:32.924Z,40.03
2023-05-11T12:33:00.488Z,39.30
2023-05-11T12:35:28.941Z,39.66
2023-05-11T12:37:57.197Z,38.82
2023-05-11T12:40:24.381Z,39.19
2023-05-11T12:42:52.251Z,38.42
2023-05-11T12:45:20.741Z,38.30
2023-05-11T12:47:49.068Z,40.01
2023-05-11T12:50:16.829Z,41.78
2023-05-11T12:52:44.124Z,41.46
2023-05-11T12:55:11.840Z,41.24
2023-05-11T12:57:40.429Z,41.06
2023-05-11T13:00:14.879Z,40.05
2023-05-11T13:02:51.242Z,40.17
2023-05-11T13:05:19.942Z,41.51
2023-05-11T13:07:48.690Z,41.97
2023-05-11T13:10:15.845Z,42.51
2023-05-11T13:12:50.467Z,42.31
2023-05-11T13:15:17.927Z,42.39
2023-05-11T13:17:45.264Z,44.16
2023-05-11T13:20:27.291Z,42.93
2023-05-11T13:23:07.240Z,41.97
2023-05-11T13:25:36.039Z,42.18
2023-05-11T13:28:03.085Z,42.82
2023-05-11T13:30:30.844Z,41.77
2023-05-11T13:32:58.657Z,41.33
2023-05-11T13:35:25.744Z,41.53
2023-05-11T13:37:52.636Z,41.06
2023-05-11T13:40:19.527Z,41.93
2023-05-11T13:42:46.534Z,42.65
2023-05-11T13:45:13.405Z,43.29
2023-05-11T13:47:45.391Z,41.71
2023-05-11T13:50:12.571Z,42.83
2023-05-11T13:52:41.115Z,42.59
2023-05-11T13:55:08.443Z,42.52
2023-05-11T13:57:35.586Z,42.21
2023-05-11T14:00:02.427Z,42.68
2023-05-11T14:02:29.431Z,41.95
2023-05-11T14:04:56.426Z,41.86
2023-05-11T14:07:29.760Z,41.92
2023-05-11T14:10:03.184Z,42.64
2023-05-11T14:12:30.049Z,42.27
2023-05-11T14:14:56.923Z,42.79
2023-05-11T14:17:23.786Z,42.98
2023-05-11T14:19:50.686Z,42.70
2023-05-11T14:22:17.532Z,41.90
2023-05-11T14:24:44.358Z,42.09
2023-05-11T14:27:11.225Z,41.91
2023-05-11T14:29:41.134Z,42.13
2023-05-11T14:32:10.328Z,41.04
2023-05-11T14:34:37.371Z,41.91
2023-05-11T14:37:05.833Z,41.83
2023-05-11T14:39:32.746Z,42.18
2023-05-11T14:41:59.561Z,42.22
2023-05-11T14:44:26.474Z,42.03
2023-05-11T14:46:53.749Z,43.18
2023-05-11T14:49:24.503Z,44.01
2023-05-11T14:51:51.369Z,43.82
2023-05-11T14:54:18.192Z,43.58
2023-05-11T14:56:51.394Z,44.86
2023-05-11T14:59:18.488Z,45.05
2023-05-11T15:01:45.507Z,46.91
2023-05-11T15:04:12.498Z,47.74
2023-05-11T15:06:39.443Z,50.02
2023-05-11T15:09:06.843Z,51.87
2023-05-11T15:11:33.708Z,56.38
2023-05-11T15:14:01.193Z,55.21
2023-05-11T15:16:28.120Z,58.79
2023-05-11T15:19:06.721Z,57.82
2023-05-11T15:21:33.662Z,61.41
2023-05-11T15:24:00.553Z,64.64
2023-05-11T15:26:27.391Z,64.16
2023-05-11T15:28:54.275Z,63.84
2023-05-11T15:31:22.452Z,64.49
2023-05-11T15:33:49.351Z,68.19
2023-05-11T15:36:16.313Z,66.62
2023-05-11T15:38:44.209Z,65.36
2023-05-11T15:41:11.079Z,64.30
2023-05-11T15:43:37.991Z,66.16
2023-05-11T15:46:05.830Z,63.85
2023-05-11T15:48:33.167Z,64.64
2023-05-11T15:51:01.119Z,65.00
2023-05-11T15:53:28.080Z,65.17
2023-05-11T15:55:55.905Z,66.89
2023-05-11T15:58:23.243Z,63.25
2023-05-11T16:00:50.299Z,63.25
2023-05-11T16:03:17.584Z,66.17
2023-05-11T16:05:45.686Z,63.58
2023-05-11T16:08:13.246Z,65.38
2023-05-11T16:10:40.182Z,66.05
2023-05-11T16:13:07.335Z,66.59
2023-05-11T16:15:34.186Z,63.45
2023-05-11T16:18:04.011Z,64.65
2023-05-11T16:20:31.913Z,67.66
2023-05-11T16:22:58.839Z,66.58
2023-05-11T16:25:25.726Z,71.26
2023-05-11T16:27:52.572Z,68.58
2023-05-11T16:30:24.889Z,69.37
2023-05-11T16:32:53.107Z,70.76
2023-05-11T16:35:20.568Z,76.02
2023-05-11T16:37:48.088Z,75.39
2023-05-11T16:40:18.472Z,74.98
2023-05-11T16:42:46.977Z,78.31
2023-05-11T16:45:13.948Z,78.06
2023-05-11T16:53:59.822Z,78.53
2023-05-11T16:56:38.722Z,83.12
2023-05-11T16:59:10.255Z,80.13
2023-05-11T17:01:50.752Z,80.76
2023-05-11T17:04:20.755Z,81.93
2023-05-11T17:06:47.916Z,83.25
2023-05-11T17:09:17.301Z,83.83
2023-05-11T17:11:44.437Z,83.34
2023-05-11T17:14:11.392Z,85.53
2023-05-11T17:16:56.293Z,85.06
2023-05-11T17:19:23.193Z,85.41
2023-05-11T17:21:52.883Z,84.79
2023-05-11T17:24:22.228Z,85.55
2023-05-11T17:26:56.962Z,86.39
2023-05-11T17:29:24.024Z,85.00
2023-05-11T17:31:52.050Z,84.34
2023-05-11T17:34:20.520Z,89.28
2023-05-11T17:37:02.261Z,88.39
2023-05-11T17:39:34.279Z,90.83
2023-05-11T17:42:01.173Z,89.86
2023-05-11T17:44:28.396Z,92.78
2023-05-11T17:46:55.219Z,91.12
2023-05-11T17:49:21.880Z,89.39
2023-05-11T17:51:48.676Z,92.92
2023-05-11T17:54:15.343Z,93.11
2023-05-11T17:56:42.211Z,92.24
2023-05-11T17:59:09.262Z,93.74
2023-05-11T18:01:36.128Z,93.61
2023-05-11T18:04:04.779Z,95.98
2023-05-11T18:06:31.801Z,93.98
2023-05-11T18:08:59.638Z,96.27
2023-05-11T18:11:27.331Z,96.17
2023-05-11T18:13:54.195Z,96.31
2023-05-11T18:16:21.681Z,93.25
2023-05-11T18:18:48.604Z,95.18
2023-05-11T18:21:15.416Z,95.56
2023-05-11T18:23:42.545Z,93.95
2023-05-11T18:26:09.450Z,95.47
2023-05-11T18:28:36.382Z,97.60
2023-05-11T18:31:03.345Z,100.00
2023-05-11T18:33:30.269Z,96.05
2023-05-11T18:35:57.116Z,98.49
2023-05-11T18:38:23.740Z,100.00
2023-05-11T18:40:51.515Z,99.80
2023-05-11T18:43:18.383Z,100.00
2023-05-11T18:45:46.483Z,100.00
2023-05-11T18:48:13.493Z,100.00
2023-05-11T18:50:40.517Z,100.00
2023-05-11T18:53:07.357Z,100.00
2023-05-11T18:55:44.939Z,100.00
2023-05-11T18:58:20.198Z,100.00
2023-05-11T19:00:48.722Z,99.18
2023-05-11T19:03:16.371Z,100.00
2023-05-11T19:05:43.824Z,100.00
2023-05-11T19:08:11.306Z,100.00
2023-05-11T19:10:39.546Z,100.00
2023-05-11T19:13:07.332Z,100.00
2023-05-11T19:15:34.367Z,100.00
2023-05-11T19:18:01.265Z,100.00
2023-05-11T19:20:28.115Z,100.00
2023-05-11T19:22:54.775Z,100.00
2023-05-11T19:25:21.665Z,100.00
2023-05-11T19:27:48.580Z,100.00
2023-05-11T19:30:15.485Z,100.00
2023-05-11T19:32:43.776Z,100.00
2023-05-11T19:35:12.857Z,100.00
2023-05-11T19:37:39.760Z,100.00
2023-05-11T19:40:43.044Z,100.00
2023-05-11T19:42:54.100Z,100.00
2023-05-11T19:45:21.072Z,100.00
2023-05-11T19:47:47.986Z,100.00
2023-05-11T19:50:15.175Z,100.00
2023-05-11T19:52:42.056Z,100.00
2023-05-11T19:55:09.091Z,100.00
2023-05-11T19:57:37.422Z,100.00
2023-05-11T20:00:07.891Z,100.00
2023-05-11T20:02:35.970Z,100.00
2023-05-11T20:05:04.262Z,100.00
2023-05-11T20:07:32.111Z,100.00
2023-05-11T20:09:59.036Z,100.00
2023-05-11T20:12:25.886Z,100.00
2023-05-11T20:14:53.120Z,100.00
2023-05-11T20:17:20.132Z,100.00
2023-05-11T20:19:47.033Z,100.00
2023-05-11T20:22:13.865Z,100.00
2023-05-11T20:24:40.723Z,100.00
2023-05-11T20:27:11.172Z,100.00
2023-05-11T20:29:40.409Z,100.00
2023-05-11T20:32:07.763Z,100.00
2023-05-11T20:34:34.774Z,100.00
2023-05-11T20:37:01.671Z,100.00
2023-05-11T20:39:28.598Z,100.00
2023-05-11T20:41:58.729Z,100.00
2023-05-11T20:44:25.979Z,100.00
2023-05-11T20:46:52.874Z,100.00
2023-05-11T20:49:34.691Z,100.00
2023-05-11T20:52:04.977Z,100.00
2023-05-11T20:54:33.911Z,100.00
2023-05-11T20:57:01.757Z,100.00
2023-05-11T21:01:59.860Z,100.00
2023-05-11T21:04:26.677Z,100.00
2023-05-11T21:06:56.310Z,100.00
2023-05-11T21:09:23.178Z,100.00
2023-05-11T21:11:50.075Z,100.00
2023-05-11T21:14:16.997Z,100.00
2023-05-11T21:16:43.882Z,100.00
2023-05-11T21:19:10.885Z,100.00
2023-05-11T21:21:38.247Z,100.00
2023-05-11T21:24:06.274Z,100.00
2023-05-11T21:26:33.244Z,100.00
2023-05-11T21:29:00.414Z,100.00
2023-05-11T21:31:27.436Z,100.00
2023-05-11T21:33:54.657Z,100.00
2023-05-11T21:36:22.371Z,100.00
2023-05-11T21:38:49.342Z,100.00
2023-05-11T21:41:17.043Z,100.00
2023-05-11T21:43:43.906Z,100.00
2023-05-11T21:46:10.870Z,100.00
2023-05-11T21:48:37.719Z,100.00
2023-05-11T21:51:04.460Z,100.00
2023-05-11T21:53:31.368Z,100.00
2023-05-11T21:55:58.295Z,100.00
2023-05-11T21:58:25.188Z,100.00
2023-05-11T22:00:52.123Z,100.00
2023-05-11T22:03:19.467Z,100.00
2023-05-11T22:05:46.458Z,100.00
2023-05-11T22:08:15.475Z,100.00
2023-05-11T22:10:43.471Z,100.00
2023-05-11T22:13:10.520Z,100.00
2023-05-11T22:15:37.356Z,100.00
2023-05-11T22:18:04.106Z,100.00
2023-05-11T22:20:31.866Z,100.00
2023-05-11T22:22:59.467Z,100.00
2023-05-11T22:25:26.718Z,100.00
2023-05-11T22:27:53.876Z,100.00
2023-05-11T22:30:21.195Z,100.00
2023-05-11T22:32:48.337Z,100.00
2023-05-11T22:35:15.173Z,100.00
2023-05-11T22:37:42.066Z,100.00
2023-05-11T22:40:09.057Z,100.00
2023-05-11T22:42:35.996Z,100.00
2023-05-11T22:45:02.980Z,100.00
2023-05-11T22:47:30.304Z,100.00
2023-05-11T22:49:57.298Z,100.00
2023-05-11T22:52:24.175Z,100.00
2023-05-11T22:55:00.450Z,100.00
2023-05-11T22:57:27.882Z,100.00
2023-05-11T22:59:54.795Z,100.00
2023-05-11T23:02:23.200Z,100.00
2023-05-11T23:04:53.575Z,100.00
2023-05-11T23:07:20.398Z,100.00
2023-05-11T23:09:47.199Z,100.00
2023-05-11T23:12:14.126Z,100.00
2023-05-11T23:14:41.961Z,100.00
2023-05-11T23:17:09.251Z,100.00
2023-05-11T23:19:36.452Z,100.00
2023-05-11T23:22:03.472Z,100.00
2023-05-11T23:24:30.340Z,100.00
2023-05-11T23:26:57.269Z,100.00
2023-05-11T23:29:24.544Z,100.00
2023-05-11T23:31:51.658Z,100.00
2023-05-11T23:34:18.736Z,100.00
2023-05-11T23:36:45.804Z,100.00
2023-05-11T23:39:12.701Z,100.00
2023-05-11T23:41:39.571Z,100.00
2023-05-11T23:44:06.412Z,100.00
2023-05-11T23:46:33.053Z,100.00
2023-05-11T23:48:59.898Z,100.00
2023-05-11T23:51:26.516Z,100.00
2023-05-11T23:53:53.399Z,100.00
2023-05-11T23:56:20.241Z,100.00
2023-05-11T23:58:46.993Z,100.00
